sensor_id;sensor_type;location;lat;lon;timestamp;pressure;altitude;pressure_sealevel;temperature;humidity
22688;BME280;11511;51.514;7.080;2024-01-10T00:01:22;102549.72;;;-8.29;100.00
22688;BME280;11511;51.514;7.080;2024-01-10T00:03:53;102551.97;;;-8.09;100.00
22688;BME280;11511;51.514;7.080;2024-01-10T00:06:18;102546.16;;;-8.31;100.00
22688;BME280;11511;51.514;7.080;2024-01-10T00:08:44;102544.56;;;-8.18;100.00
22688;BME280;11511;51.514;7.080;2024-01-10T00:11:11;102546.44;;;-8.15;100.00
22688;BME280;11511;51.514;7.080;2024-01-10T00:13:37;102535.56;;;-7.88;100.00
22688;BME280;11511;51.514;7.080;2024-01-10T00:16:02;102529.03;;;-7.96;100.00
22688;BME280;11511;51.514;7.080;2024-01-10T00:18:28;102529.94;;;-7.57;100.00
22688;BME280;11511;51.514;7.080;2024-01-10T00:20:53;102523.13;;;-7.32;100.00
22688;BME280;11511;51.514;7.080;2024-01-10T00:23:22;102519.03;;;-7.17;100.00
22688;BME280;11511;51.514;7.080;2024-01-10T00:25:48;102514.06;;;-6.74;100.00
22688;BME280;11511;51.514;7.080;2024-01-10T00:28:14;102508.47;;;-6.82;100.00
22688;BME280;11511;51.514;7.080;2024-01-10T00:30:43;102518.91;;;-7.18;100.00
22688;BME280;11511;51.514;7.080;2024-01-10T00:33:08;102517.50;;;-7.39;100.00
22688;BME280;11511;51.514;7.080;2024-01-10T00:35:34;102512.19;;;-7.42;100.00
22688;BME280;11511;51.514;7.080;2024-01-10T00:38:00;102523.59;;;-7.75;100.00
22688;BME280;11511;51.514;7.080;2024-01-10T00:40:25;102523.91;;;-7.33;100.00
22688;BME280;11511;51.514;7.080;2024-01-10T00:42:51;102521.28;;;-7.21;100.00
22688;BME280;11511;51.514;7.080;2024-01-10T00:45:17;102514.88;;;-7.14;100.00
22688;BME280;11511;51.514;7.080;2024-01-10T00:47:49;102506.88;;;-7.06;100.00
22688;BME280;11511;51.514;7.080;2024-01-10T00:50:15;102506.78;;;-7.07;100.00
22688;BME280;11511;51.514;7.080;2024-01-10T00:52:42;102519.28;;;-7.25;100.00
22688;BME280;11511;51.514;7.080;2024-01-10T00:55:07;102509.09;;;-6.86;100.00
22688;BME280;11511;51.514;7.080;2024-01-10T00:57:33;102503.13;;;-7.11;100.00
22688;BME280;11511;51.514;7.080;2024-01-10T00:59:59;102505.09;;;-6.80;100.00
22688;BME280;11511;51.514;7.080;2024-01-10T01:02:25;102499.91;;;-6.95;100.00
22688;BME280;11511;51.514;7.080;2024-01-10T01:04:50;102500.88;;;-7.06;100.00
22688;BME280;11511;51.514;7.080;2024-01-10T01:07:16;102498.44;;;-6.92;100.00
22688;BME280;11511;51.514;7.080;2024-01-10T01:09:41;102496.25;;;-6.99;100.00
22688;BME280;11511;51.514;7.080;2024-01-10T01:12:07;102503.66;;;-6.90;100.00
22688;BME280;11511;51.514;7.080;2024-01-10T01:14:32;102507.50;;;-6.97;100.00
22688;BME280;11511;51.514;7.080;2024-01-10T01:16:58;102498.19;;;-7.34;100.00
22688;BME280;11511;51.514;7.080;2024-01-10T01:19:24;102497.69;;;-7.55;100.00
22688;BME280;11511;51.514;7.080;2024-01-10T01:21:50;102491.75;;;-7.16;100.00
22688;BME280;11511;51.514;7.080;2024-01-10T01:24:16;102493.28;;;-7.44;100.00
22688;BME280;11511;51.514;7.080;2024-01-10T01:26:42;102496.16;;;-7.78;100.00
22688;BME280;11511;51.514;7.080;2024-01-10T01:29:07;102498.81;;;-7.63;100.00
22688;BME280;11511;51.514;7.080;2024-01-10T01:31:34;102503.72;;;-7.79;100.00
22688;BME280;11511;51.514;7.080;2024-01-10T01:34:00;102495.88;;;-7.69;100.00
22688;BME280;11511;51.514;7.080;2024-01-10T01:36:25;102482.75;;;-7.49;100.00
22688;BME280;11511;51.514;7.080;2024-01-10T01:38:51;102486.34;;;-7.59;100.00
22688;BME280;11511;51.514;7.080;2024-01-10T01:41:16;102494.06;;;-7.83;100.00
22688;BME280;11511;51.514;7.080;2024-01-10T01:43:43;102495.28;;;-8.03;100.00
22688;BME280;11511;51.514;7.080;2024-01-10T01:46:08;102489.72;;;-8.09;100.00
22688;BME280;11511;51.514;7.080;2024-01-10T01:48:34;102480.06;;;-8.13;100.00
22688;BME280;11511;51.514;7.080;2024-01-10T01:51:01;102483.47;;;-8.01;100.00
22688;BME280;11511;51.514;7.080;2024-01-10T01:53:27;102478.91;;;-7.94;100.00
22688;BME280;11511;51.514;7.080;2024-01-10T01:55:56;102477.50;;;-7.89;100.00
22688;BME280;11511;51.514;7.080;2024-01-10T01:58:22;102481.78;;;-7.76;100.00
22688;BME280;11511;51.514;7.080;2024-01-10T02:00:48;102476.56;;;-7.77;100.00
22688;BME280;11511;51.514;7.080;2024-01-10T02:03:14;102473.59;;;-7.83;100.00
22688;BME280;11511;51.514;7.080;2024-01-10T02:05:39;102477.81;;;-7.84;100.00
22688;BME280;11511;51.514;7.080;2024-01-10T02:08:05;102481.22;;;-7.72;100.00
22688;BME280;11511;51.514;7.080;2024-01-10T02:10:30;102474.22;;;-7.61;100.00
22688;BME280;11511;51.514;7.080;2024-01-10T02:12:56;102466.97;;;-7.68;100.00
22688;BME280;11511;51.514;7.080;2024-01-10T02:15:22;102470.56;;;-7.78;100.00
22688;BME280;11511;51.514;7.080;2024-01-10T02:17:50;102468.66;;;-7.94;100.00
22688;BME280;11511;51.514;7.080;2024-01-10T02:20:16;102472.06;;;-8.06;100.00
22688;BME280;11511;51.514;7.080;2024-01-10T02:22:45;102464.41;;;-7.68;100.00
22688;BME280;11511;51.514;7.080;2024-01-10T02:25:12;102468.78;;;-7.41;100.00
22688;BME280;11511;51.514;7.080;2024-01-10T02:27:38;102471.81;;;-7.46;100.00
22688;BME280;11511;51.514;7.080;2024-01-10T02:30:04;102465.59;;;-7.50;100.00
22688;BME280;11511;51.514;7.080;2024-01-10T02:32:30;102465.22;;;-7.43;100.00
22688;BME280;11511;51.514;7.080;2024-01-10T02:34:55;102460.97;;;-7.56;100.00
22688;BME280;11511;51.514;7.080;2024-01-10T02:37:21;102459.81;;;-7.34;100.00
22688;BME280;11511;51.514;7.080;2024-01-10T02:39:47;102465.22;;;-7.43;100.00
22688;BME280;11511;51.514;7.080;2024-01-10T02:42:13;102457.94;;;-7.24;100.00
22688;BME280;11511;51.514;7.080;2024-01-10T02:44:39;102465.34;;;-7.41;100.00
22688;BME280;11511;51.514;7.080;2024-01-10T02:47:05;102460.78;;;-7.45;100.00
22688;BME280;11511;51.514;7.080;2024-01-10T02:49:30;102455.88;;;-7.42;100.00
22688;BME280;11511;51.514;7.080;2024-01-10T02:51:56;102457.16;;;-7.49;100.00
22688;BME280;11511;51.514;7.080;2024-01-10T02:54:21;102454.47;;;-7.51;100.00
22688;BME280;11511;51.514;7.080;2024-01-10T02:56:47;102452.78;;;-7.63;100.00
22688;BME280;11511;51.514;7.080;2024-01-10T02:59:13;102460.91;;;-7.82;100.00
22688;BME280;11511;51.514;7.080;2024-01-10T03:01:39;102456.94;;;-7.52;100.00
22688;BME280;11511;51.514;7.080;2024-01-10T03:04:04;102454.53;;;-7.75;100.00
22688;BME280;11511;51.514;7.080;2024-01-10T03:06:30;102447.56;;;-7.65;100.00
22688;BME280;11511;51.514;7.080;2024-01-10T03:08:55;102461.69;;;-7.83;100.00
22688;BME280;11511;51.514;7.080;2024-01-10T03:11:21;102456.06;;;-7.91;100.00
22688;BME280;11511;51.514;7.080;2024-01-10T03:13:47;102445.97;;;-8.14;100.00
22688;BME280;11511;51.514;7.080;2024-01-10T03:16:13;102441.84;;;-8.12;100.00
22688;BME280;11511;51.514;7.080;2024-01-10T03:18:42;102442.13;;;-7.82;100.00
22688;BME280;11511;51.514;7.080;2024-01-10T03:21:08;102433.91;;;-8.03;100.00
22688;BME280;11511;51.514;7.080;2024-01-10T03:23:33;102426.13;;;-8.05;100.00
22688;BME280;11511;51.514;7.080;2024-01-10T03:25:59;102422.91;;;-7.89;100.00
22688;BME280;11511;51.514;7.080;2024-01-10T03:28:25;102418.09;;;-7.85;100.00
22688;BME280;11511;51.514;7.080;2024-01-10T03:30:50;102424.78;;;-7.87;100.00
22688;BME280;11511;51.514;7.080;2024-01-10T03:33:16;102422.75;;;-7.79;100.00
22688;BME280;11511;51.514;7.080;2024-01-10T03:35:41;102426.41;;;-7.75;100.00
22688;BME280;11511;51.514;7.080;2024-01-10T03:38:07;102420.72;;;-7.71;100.00
22688;BME280;11511;51.514;7.080;2024-01-10T03:40:33;102423.34;;;-7.83;100.00
22688;BME280;11511;51.514;7.080;2024-01-10T03:42:58;102425.00;;;-7.83;100.00
22688;BME280;11511;51.514;7.080;2024-01-10T03:45:24;102420.97;;;-7.80;100.00
22688;BME280;11511;51.514;7.080;2024-01-10T03:47:50;102421.19;;;-7.77;100.00
22688;BME280;11511;51.514;7.080;2024-01-10T03:50:17;102432.72;;;-7.70;100.00
22688;BME280;11511;51.514;7.080;2024-01-10T03:52:43;102430.13;;;-7.83;100.00
22688;BME280;11511;51.514;7.080;2024-01-10T03:55:08;102432.34;;;-7.88;100.00
22688;BME280;11511;51.514;7.080;2024-01-10T03:57:34;102431.00;;;-7.96;100.00
22688;BME280;11511;51.514;7.080;2024-01-10T04:00:00;102436.47;;;-8.03;100.00
22688;BME280;11511;51.514;7.080;2024-01-10T04:02:26;102439.75;;;-8.18;100.00
22688;BME280;11511;51.514;7.080;2024-01-10T04:04:53;102432.72;;;-8.08;100.00
22688;BME280;11511;51.514;7.080;2024-01-10T04:07:18;102433.81;;;-8.30;100.00
22688;BME280;11511;51.514;7.080;2024-01-10T04:09:44;102428.69;;;-8.30;100.00
22688;BME280;11511;51.514;7.080;2024-01-10T04:12:10;102424.59;;;-8.28;100.00
22688;BME280;11511;51.514;7.080;2024-01-10T04:14:35;102425.50;;;-8.14;100.00
22688;BME280;11511;51.514;7.080;2024-01-10T04:17:01;102426.91;;;-8.06;100.00
22688;BME280;11511;51.514;7.080;2024-01-10T04:19:27;102429.09;;;-7.99;100.00
22688;BME280;11511;51.514;7.080;2024-01-10T04:21:52;102438.50;;;-8.11;100.00
22688;BME280;11511;51.514;7.080;2024-01-10T04:24:18;102421.75;;;-7.94;100.00
22688;BME280;11511;51.514;7.080;2024-01-10T04:26:44;102416.78;;;-8.04;100.00
22688;BME280;11511;51.514;7.080;2024-01-10T04:29:09;102417.09;;;-8.00;100.00
22688;BME280;11511;51.514;7.080;2024-01-10T04:31:35;102424.16;;;-8.09;100.00
22688;BME280;11511;51.514;7.080;2024-01-10T04:34:01;102425.75;;;-8.36;100.00
22688;BME280;11511;51.514;7.080;2024-01-10T04:36:27;102430.34;;;-8.43;100.00
22688;BME280;11511;51.514;7.080;2024-01-10T04:38:52;102432.03;;;-8.06;100.00
22688;BME280;11511;51.514;7.080;2024-01-10T04:41:18;102435.69;;;-8.02;100.00
22688;BME280;11511;51.514;7.080;2024-01-10T04:43:44;102426.09;;;-7.93;100.00
22688;BME280;11511;51.514;7.080;2024-01-10T04:46:10;102419.00;;;-7.84;100.00
22688;BME280;11511;51.514;7.080;2024-01-10T04:48:36;102428.22;;;-7.99;100.00
22688;BME280;11511;51.514;7.080;2024-01-10T04:51:02;102425.47;;;-7.89;100.00
22688;BME280;11511;51.514;7.080;2024-01-10T04:53:28;102422.81;;;-7.91;100.00
22688;BME280;11511;51.514;7.080;2024-01-10T04:55:53;102421.22;;;-8.02;100.00
22688;BME280;11511;51.514;7.080;2024-01-10T04:58:19;102424.56;;;-8.03;100.00
22688;BME280;11511;51.514;7.080;2024-01-10T05:00:44;102416.31;;;-7.99;100.00
22688;BME280;11511;51.514;7.080;2024-01-10T05:03:10;102409.34;;;-8.01;100.00
22688;BME280;11511;51.514;7.080;2024-01-10T05:05:35;102412.56;;;-8.04;100.00
22688;BME280;11511;51.514;7.080;2024-01-10T05:08:04;102406.56;;;-7.91;100.00
22688;BME280;11511;51.514;7.080;2024-01-10T05:10:30;102408.88;;;-7.96;100.00
22688;BME280;11511;51.514;7.080;2024-01-10T05:12:55;102403.53;;;-7.99;100.00
22688;BME280;11511;51.514;7.080;2024-01-10T05:15:24;102415.59;;;-8.09;100.00
22688;BME280;11511;51.514;7.080;2024-01-10T05:17:49;102417.25;;;-8.10;100.00
22688;BME280;11511;51.514;7.080;2024-01-10T05:20:15;102408.88;;;-8.21;100.00
22688;BME280;11511;51.514;7.080;2024-01-10T05:22:41;102411.53;;;-8.19;100.00
22688;BME280;11511;51.514;7.080;2024-01-10T05:25:07;102421.59;;;-8.09;100.00
22688;BME280;11511;51.514;7.080;2024-01-10T05:27:33;102410.91;;;-8.03;100.00
22688;BME280;11511;51.514;7.080;2024-01-10T05:30:02;102407.50;;;-7.77;100.00
22688;BME280;11511;51.514;7.080;2024-01-10T05:32:27;102404.28;;;-7.75;100.00
22688;BME280;11511;51.514;7.080;2024-01-10T05:34:53;102397.25;;;-7.91;100.00
22688;BME280;11511;51.514;7.080;2024-01-10T05:37:19;102405.38;;;-8.09;100.00
22688;BME280;11511;51.514;7.080;2024-01-10T05:39:45;102405.84;;;-8.15;100.00
22688;BME280;11511;51.514;7.080;2024-01-10T05:42:10;102402.53;;;-8.01;100.00
22688;BME280;11511;51.514;7.080;2024-01-10T05:44:36;102409.38;;;-8.13;100.00
22688;BME280;11511;51.514;7.080;2024-01-10T05:47:02;102409.75;;;-8.20;100.00
22688;BME280;11511;51.514;7.080;2024-01-10T05:49:28;102419.25;;;-8.31;100.00
22688;BME280;11511;51.514;7.080;2024-01-10T05:51:54;102406.13;;;-8.24;100.00
22688;BME280;11511;51.514;7.080;2024-01-10T05:54:19;102407.81;;;-8.11;100.00
22688;BME280;11511;51.514;7.080;2024-01-10T05:56:45;102397.78;;;-8.21;100.00
22688;BME280;11511;51.514;7.080;2024-01-10T05:59:11;102398.31;;;-8.00;100.00
22688;BME280;11511;51.514;7.080;2024-01-10T06:01:37;102394.78;;;-7.89;100.00
22688;BME280;11511;51.514;7.080;2024-01-10T06:04:05;102399.56;;;-7.69;100.00
22688;BME280;11511;51.514;7.080;2024-01-10T06:06:31;102405.47;;;-7.70;100.00
22688;BME280;11511;51.514;7.080;2024-01-10T06:08:57;102403.66;;;-7.97;100.00
22688;BME280;11511;51.514;7.080;2024-01-10T06:11:23;102403.66;;;-7.97;100.00
22688;BME280;11511;51.514;7.080;2024-01-10T06:13:52;102405.63;;;-7.80;100.00
22688;BME280;11511;51.514;7.080;2024-01-10T06:16:18;102399.84;;;-7.77;100.00
22688;BME280;11511;51.514;7.080;2024-01-10T06:18:44;102404.47;;;-7.72;100.00
22688;BME280;11511;51.514;7.080;2024-01-10T06:21:10;102394.53;;;-7.67;100.00
22688;BME280;11511;51.514;7.080;2024-01-10T06:23:35;102383.91;;;-7.73;100.00
22688;BME280;11511;51.514;7.080;2024-01-10T06:26:01;102391.47;;;-7.62;100.00
22688;BME280;11511;51.514;7.080;2024-01-10T06:28:27;102399.72;;;-7.66;100.00
22688;BME280;11511;51.514;7.080;2024-01-10T06:30:52;102397.88;;;-7.68;100.00
22688;BME280;11511;51.514;7.080;2024-01-10T06:33:18;102399.66;;;-7.67;100.00
22688;BME280;11511;51.514;7.080;2024-01-10T06:35:45;102399.06;;;-7.76;100.00
22688;BME280;11511;51.514;7.080;2024-01-10T06:38:11;102403.09;;;-7.67;100.00
22688;BME280;11511;51.514;7.080;2024-01-10T06:40:36;102410.22;;;-7.88;100.00
22688;BME280;11511;51.514;7.080;2024-01-10T06:43:05;102410.22;;;-7.88;100.00
22688;BME280;11511;51.514;7.080;2024-01-10T06:45:30;102402.06;;;-7.95;100.00
22688;BME280;11511;51.514;7.080;2024-01-10T06:47:55;102409.75;;;-7.95;100.00
22688;BME280;11511;51.514;7.080;2024-01-10T06:50:21;102403.84;;;-7.81;100.00
22688;BME280;11511;51.514;7.080;2024-01-10T06:52:48;102396.50;;;-7.63;100.00
22688;BME280;11511;51.514;7.080;2024-01-10T06:55:13;102404.78;;;-7.54;100.00
22688;BME280;11511;51.514;7.080;2024-01-10T06:57:42;102398.47;;;-7.59;100.00
22688;BME280;11511;51.514;7.080;2024-01-10T07:00:08;102396.78;;;-7.59;100.00
22688;BME280;11511;51.514;7.080;2024-01-10T07:02:36;102406.22;;;-7.84;100.00
22688;BME280;11511;51.514;7.080;2024-01-10T07:05:02;102413.09;;;-7.83;100.00
22688;BME280;11511;51.514;7.080;2024-01-10T07:07:31;102412.66;;;-8.02;100.00
22688;BME280;11511;51.514;7.080;2024-01-10T07:09:57;102404.00;;;-7.66;100.00
22688;BME280;11511;51.514;7.080;2024-01-10T07:12:23;102410.56;;;-7.70;100.00
22688;BME280;11511;51.514;7.080;2024-01-10T07:14:48;102403.59;;;-7.59;100.00
22688;BME280;11511;51.514;7.080;2024-01-10T07:17:14;102407.34;;;-7.67;100.00
22688;BME280;11511;51.514;7.080;2024-01-10T07:19:40;102401.31;;;-7.81;100.00
22688;BME280;11511;51.514;7.080;2024-01-10T07:22:05;102405.38;;;-7.71;100.00
22688;BME280;11511;51.514;7.080;2024-01-10T07:24:31;102406.16;;;-7.72;100.00
22688;BME280;11511;51.514;7.080;2024-01-10T07:26:56;102402.13;;;-7.69;100.00
22688;BME280;11511;51.514;7.080;2024-01-10T07:29:22;102397.78;;;-7.70;100.00
22688;BME280;11511;51.514;7.080;2024-01-10T07:31:48;102406.94;;;-7.60;100.00
22688;BME280;11511;51.514;7.080;2024-01-10T07:34:14;102404.00;;;-7.53;100.00
22688;BME280;11511;51.514;7.080;2024-01-10T07:36:43;102407.13;;;-7.57;100.00
22688;BME280;11511;51.514;7.080;2024-01-10T07:39:09;102404.00;;;-7.53;100.00
22688;BME280;11511;51.514;7.080;2024-01-10T07:41:34;102411.94;;;-7.62;100.00
22688;BME280;11511;51.514;7.080;2024-01-10T07:44:01;102411.66;;;-7.53;100.00
22688;BME280;11511;51.514;7.080;2024-01-10T07:46:28;102407.81;;;-7.60;100.00
22688;BME280;11511;51.514;7.080;2024-01-10T07:48:54;102403.19;;;-7.52;100.00
22688;BME280;11511;51.514;7.080;2024-01-10T07:51:20;102403.91;;;-7.41;100.00
22688;BME280;11511;51.514;7.080;2024-01-10T07:53:47;102403.09;;;-7.27;100.00
22688;BME280;11511;51.514;7.080;2024-01-10T07:56:15;102408.72;;;-7.46;100.00
22688;BME280;11511;51.514;7.080;2024-01-10T07:58:41;102402.41;;;-7.38;100.00
22688;BME280;11511;51.514;7.080;2024-01-10T08:01:06;102395.91;;;-7.33;100.00
22688;BME280;11511;51.514;7.080;2024-01-10T08:03:32;102395.13;;;-7.19;100.00
22688;BME280;11511;51.514;7.080;2024-01-10T08:05:58;102396.41;;;-7.25;100.00
22688;BME280;11511;51.514;7.080;2024-01-10T08:08:24;102395.31;;;-7.29;100.00
22688;BME280;11511;51.514;7.080;2024-01-10T08:10:49;102398.88;;;-7.27;100.00
22688;BME280;11511;51.514;7.080;2024-01-10T08:13:15;102394.16;;;-7.21;100.00
22688;BME280;11511;51.514;7.080;2024-01-10T08:15:41;102399.38;;;-7.19;100.00
22688;BME280;11511;51.514;7.080;2024-01-10T08:18:06;102396.13;;;-7.17;100.00
22688;BME280;11511;51.514;7.080;2024-01-10T08:20:32;102398.75;;;-7.02;100.00
22688;BME280;11511;51.514;7.080;2024-01-10T08:22:58;102397.94;;;-7.01;100.00
22688;BME280;11511;51.514;7.080;2024-01-10T08:25:23;102397.75;;;-6.91;100.00
22688;BME280;11511;51.514;7.080;2024-01-10T08:27:48;102401.97;;;-6.91;100.00
22688;BME280;11511;51.514;7.080;2024-01-10T08:30:14;102391.94;;;-6.88;100.00
22688;BME280;11511;51.514;7.080;2024-01-10T08:32:40;102401.06;;;-6.78;100.00
22688;BME280;11511;51.514;7.080;2024-01-10T08:35:06;102398.59;;;-6.77;100.00
22688;BME280;11511;51.514;7.080;2024-01-10T08:37:35;102395.91;;;-6.65;100.00
22688;BME280;11511;51.514;7.080;2024-01-10T08:40:00;102393.63;;;-6.61;100.00
22688;BME280;11511;51.514;7.080;2024-01-10T08:42:31;102397.19;;;-6.59;100.00
22688;BME280;11511;51.514;7.080;2024-01-10T08:44:57;102391.59;;;-6.52;100.00
22688;BME280;11511;51.514;7.080;2024-01-10T08:47:23;102384.75;;;-6.38;100.00
22688;BME280;11511;51.514;7.080;2024-01-10T08:49:49;102389.63;;;-6.28;100.00
22688;BME280;11511;51.514;7.080;2024-01-10T08:52:14;102404.13;;;-6.28;100.00
22688;BME280;11511;51.514;7.080;2024-01-10T08:54:40;102403.72;;;-6.21;100.00
22688;BME280;11511;51.514;7.080;2024-01-10T08:57:05;102410.88;;;-6.16;100.00
22688;BME280;11511;51.514;7.080;2024-01-10T08:59:31;102411.53;;;-6.05;100.00
22688;BME280;11511;51.514;7.080;2024-01-10T09:01:56;102418.88;;;-5.96;100.00
22688;BME280;11511;51.514;7.080;2024-01-10T09:04:22;102414.91;;;-5.91;100.00
22688;BME280;11511;51.514;7.080;2024-01-10T09:06:47;102416.03;;;-5.86;100.00
22688;BME280;11511;51.514;7.080;2024-01-10T09:09:13;102422.41;;;-5.80;100.00
22688;BME280;11511;51.514;7.080;2024-01-10T09:11:39;102413.34;;;-5.73;100.00
22688;BME280;11511;51.514;7.080;2024-01-10T09:14:04;102424.25;;;-5.62;100.00
22688;BME280;11511;51.514;7.080;2024-01-10T09:16:30;102421.78;;;-5.61;100.00
22688;BME280;11511;51.514;7.080;2024-01-10T09:18:55;102416.78;;;-5.43;100.00
22688;BME280;11511;51.514;7.080;2024-01-10T09:21:22;102418.84;;;-5.37;100.00
22688;BME280;11511;51.514;7.080;2024-01-10T09:23:48;102420.69;;;-5.35;100.00
22688;BME280;11511;51.514;7.080;2024-01-10T09:26:16;102424.06;;;-5.21;100.00
22688;BME280;11511;51.514;7.080;2024-01-10T09:28:41;102421.63;;;-5.18;100.00
22688;BME280;11511;51.514;7.080;2024-01-10T09:31:10;102422.25;;;-5.07;100.00
22688;BME280;11511;51.514;7.080;2024-01-10T09:33:40;102426.75;;;-5.03;100.00
22688;BME280;11511;51.514;7.080;2024-01-10T09:36:05;102427.50;;;-4.90;100.00
22688;BME280;11511;51.514;7.080;2024-01-10T09:38:37;102420.22;;;-4.82;100.00
22688;BME280;11511;51.514;7.080;2024-01-10T09:41:03;102420.09;;;-4.69;100.00
22688;BME280;11511;51.514;7.080;2024-01-10T09:43:32;102419.22;;;-4.37;100.00
22688;BME280;11511;51.514;7.080;2024-01-10T09:46:01;102429.91;;;-4.46;100.00
22688;BME280;11511;51.514;7.080;2024-01-10T09:48:30;102415.34;;;-4.29;100.00
22688;BME280;11511;51.514;7.080;2024-01-10T09:50:56;102424.63;;;-3.82;100.00
22688;BME280;11511;51.514;7.080;2024-01-10T09:53:22;102416.16;;;-3.63;100.00
22688;BME280;11511;51.514;7.080;2024-01-10T09:55:49;102414.16;;;-3.69;100.00
22688;BME280;11511;51.514;7.080;2024-01-10T09:58:15;102421.00;;;-3.69;100.00
22688;BME280;11511;51.514;7.080;2024-01-10T10:00:41;102425.81;;;-3.59;100.00
22688;BME280;11511;51.514;7.080;2024-01-10T10:03:10;102419.41;;;-3.50;100.00
22688;BME280;11511;51.514;7.080;2024-01-10T10:05:37;102423.78;;;-3.31;100.00
22688;BME280;11511;51.514;7.080;2024-01-10T10:08:03;102416.03;;;-3.31;100.00
22688;BME280;11511;51.514;7.080;2024-01-10T10:10:31;102429.59;;;-3.35;100.00
22688;BME280;11511;51.514;7.080;2024-01-10T10:12:57;102420.44;;;-3.46;100.00
22688;BME280;11511;51.514;7.080;2024-01-10T10:15:23;102425.69;;;-3.09;100.00
22688;BME280;11511;51.514;7.080;2024-01-10T10:17:51;102418.03;;;-3.08;100.00
22688;BME280;11511;51.514;7.080;2024-01-10T10:22:58;102416.69;;;-2.62;100.00
22688;BME280;11511;51.514;7.080;2024-01-10T10:25:30;102416.75;;;-2.61;100.00
22688;BME280;11511;51.514;7.080;2024-01-10T10:27:57;102406.94;;;-2.31;100.00
22688;BME280;11511;51.514;7.080;2024-01-10T10:30:23;102409.53;;;-2.50;100.00
22688;BME280;11511;51.514;7.080;2024-01-10T10:32:49;102410.75;;;-2.23;100.00
22688;BME280;11511;51.514;7.080;2024-01-10T10:35:15;102407.00;;;-2.29;100.00
22688;BME280;11511;51.514;7.080;2024-01-10T10:37:41;102406.38;;;-2.05;100.00
22688;BME280;11511;51.514;7.080;2024-01-10T10:40:06;102402.03;;;-1.65;100.00
22688;BME280;11511;51.514;7.080;2024-01-10T10:42:34;102391.44;;;3.11;90.87
22688;BME280;11511;51.514;7.080;2024-01-10T10:45:04;102386.81;;;7.25;77.84
22688;BME280;11511;51.514;7.080;2024-01-10T10:47:34;102394.22;;;8.56;63.16
22688;BME280;11511;51.514;7.080;2024-01-10T10:50:01;102403.66;;;7.76;49.12
22688;BME280;11511;51.514;7.080;2024-01-10T10:52:28;102403.00;;;8.74;41.97
22688;BME280;11511;51.514;7.080;2024-01-10T10:54:55;102401.22;;;8.67;41.57
22688;BME280;11511;51.514;7.080;2024-01-10T10:57:23;102395.06;;;8.87;39.37
22688;BME280;11511;51.514;7.080;2024-01-10T10:59:53;102402.34;;;10.40;37.27
22688;BME280;11511;51.514;7.080;2024-01-10T11:02:20;102403.59;;;9.77;38.14
22688;BME280;11511;51.514;7.080;2024-01-10T11:04:46;102408.19;;;10.79;35.65
22688;BME280;11511;51.514;7.080;2024-01-10T11:07:12;102408.13;;;9.32;35.50
22688;BME280;11511;51.514;7.080;2024-01-10T11:09:38;102402.97;;;8.45;37.29
22688;BME280;11511;51.514;7.080;2024-01-10T11:17:01;102396.41;;;11.92;33.55
22688;BME280;11511;51.514;7.080;2024-01-10T11:25:12;102401.16;;;8.29;34.49
22688;BME280;11511;51.514;7.080;2024-01-10T11:27:37;102409.03;;;8.28;36.11
22688;BME280;11511;51.514;7.080;2024-01-10T11:30:03;102400.03;;;7.46;37.04
22688;BME280;11511;51.514;7.080;2024-01-10T11:32:31;102393.72;;;7.08;37.64
22688;BME280;11511;51.514;7.080;2024-01-10T11:34:59;102397.22;;;7.14;38.07
22688;BME280;11511;51.514;7.080;2024-01-10T11:37:31;102390.63;;;9.28;35.23
22688;BME280;11511;51.514;7.080;2024-01-10T11:40:07;102383.63;;;8.21;35.82
22688;BME280;11511;51.514;7.080;2024-01-10T11:42:46;102376.63;;;9.09;34.48
22688;BME280;11511;51.514;7.080;2024-01-10T11:47:59;102370.47;;;7.96;35.57
22688;BME280;11511;51.514;7.080;2024-01-10T11:50:25;102364.81;;;6.96;37.14
22688;BME280;11511;51.514;7.080;2024-01-10T11:52:54;102364.47;;;6.47;38.03
22688;BME280;11511;51.514;7.080;2024-01-10T11:58:08;102349.41;;;9.33;35.25
22688;BME280;11511;51.514;7.080;2024-01-10T12:00:34;102358.28;;;8.10;34.93
22688;BME280;11511;51.514;7.080;2024-01-10T12:03:00;102355.69;;;6.43;38.12
22688;BME280;11511;51.514;7.080;2024-01-10T12:05:27;102356.16;;;7.09;37.10
22688;BME280;11511;51.514;7.080;2024-01-10T12:07:54;102366.13;;;7.92;37.17
22688;BME280;11511;51.514;7.080;2024-01-10T12:10:20;102363.50;;;8.03;36.29
22688;BME280;11511;51.514;7.080;2024-01-10T12:12:46;102366.16;;;8.18;36.41
22688;BME280;11511;51.514;7.080;2024-01-10T12:15:11;102368.94;;;5.75;38.10
22688;BME280;11511;51.514;7.080;2024-01-10T12:17:37;102369.28;;;4.71;40.34
22688;BME280;11511;51.514;7.080;2024-01-10T12:20:02;102364.13;;;4.74;41.16
22688;BME280;11511;51.514;7.080;2024-01-10T12:22:28;102364.81;;;5.91;40.18
22688;BME280;11511;51.514;7.080;2024-01-10T12:25:03;102366.53;;;5.21;39.51
22688;BME280;11511;51.514;7.080;2024-01-10T12:27:29;102363.91;;;4.61;41.23
22688;BME280;11511;51.514;7.080;2024-01-10T12:29:55;102363.28;;;4.77;41.59
22688;BME280;11511;51.514;7.080;2024-01-10T12:32:21;102364.72;;;4.05;41.85
22688;BME280;11511;51.514;7.080;2024-01-10T12:34:54;102361.94;;;3.96;43.11
22688;BME280;11511;51.514;7.080;2024-01-10T12:37:20;102354.84;;;4.39;42.01
22688;BME280;11511;51.514;7.080;2024-01-10T12:39:46;102365.09;;;4.27;42.10
22688;BME280;11511;51.514;7.080;2024-01-10T12:42:11;102356.34;;;3.34;43.25
22688;BME280;11511;51.514;7.080;2024-01-10T12:44:37;102352.59;;;3.64;43.92
22688;BME280;11511;51.514;7.080;2024-01-10T12:47:02;102347.34;;;3.61;44.28
22688;BME280;11511;51.514;7.080;2024-01-10T12:49:29;102355.31;;;3.25;44.72
22688;BME280;11511;51.514;7.080;2024-01-10T12:51:55;102344.25;;;4.28;44.41
22688;BME280;11511;51.514;7.080;2024-01-10T12:54:21;102351.91;;;4.72;42.48
22688;BME280;11511;51.514;7.080;2024-01-10T12:56:46;102346.44;;;5.16;42.49